sensor_id;sensor_type;location;lat;lon;timestamp;pressure;altitude;pressure_sealevel;temperature;humidity
64078;BME280;51039;49.696;10.808;2022-11-20T00:02:22;97870.97;;;-0.17;99.08
64078;BME280;51039;49.696;10.808;2022-11-20T00:04:47;97862.19;;;-0.16;98.78
64078;BME280;51039;49.696;10.808;2022-11-20T00:07:12;97859.44;;;-0.14;98.79
64078;BME280;51039;49.696;10.808;2022-11-20T00:09:38;97857.38;;;-0.11;99.03
64078;BME280;51039;49.696;10.808;2022-11-20T00:12:03;97856.38;;;-0.10;98.75
64078;BME280;51039;49.696;10.808;2022-11-20T00:14:28;97853.56;;;-0.16;98.09
64078;BME280;51039;49.696;10.808;2022-11-20T00:16:54;97849.91;;;-0.24;98.31
64078;BME280;51039;49.696;10.808;2022-11-20T00:19:19;97844.41;;;-0.21;98.54
64078;BME280;51039;49.696;10.808;2022-11-20T00:21:44;97842.22;;;-0.15;98.65
64078;BME280;51039;49.696;10.808;2022-11-20T00:24:10;97839.16;;;-0.11;98.37
64078;BME280;51039;49.696;10.808;2022-11-20T00:26:35;97838.16;;;-0.10;98.29
64078;BME280;51039;49.696;10.808;2022-11-20T00:29:01;97845.41;;;-0.04;98.53
64078;BME280;51039;49.696;10.808;2022-11-20T00:31:27;97848.97;;;-0.05;98.49
64078;BME280;51039;49.696;10.808;2022-11-20T00:33:53;97858.19;;;-0.10;98.30
64078;BME280;51039;49.696;10.808;2022-11-20T00:36:20;97855.28;;;-0.07;98.16
64078;BME280;51039;49.696;10.808;2022-11-20T00:38:51;97859.38;;;-0.05;98.37
64078;BME280;51039;49.696;10.808;2022-11-20T00:41:21;97857.31;;;-0.01;98.49
64078;BME280;51039;49.696;10.808;2022-11-20T00:43:46;97850.31;;;-0.01;98.49
64078;BME280;51039;49.696;10.808;2022-11-20T00:46:16;97848.44;;;-0.08;98.12
64078;BME280;51039;49.696;10.808;2022-11-20T00:48:42;97861.59;;;-0.10;98.25
64078;BME280;51039;49.696;10.808;2022-11-20T00:51:08;97863.78;;;-0.05;98.63
64078;BME280;51039;49.696;10.808;2022-11-20T00:53:35;97867.03;;;-0.03;98.51
64078;BME280;51039;49.696;10.808;2022-11-20T00:56:04;97864.59;;;-0.05;98.31
64078;BME280;51039;49.696;10.808;2022-11-20T00:58:33;97858.03;;;-0.09;98.17
64078;BME280;51039;49.696;10.808;2022-11-20T01:01:01;97867.03;;;-0.03;98.47
64078;BME280;51039;49.696;10.808;2022-11-20T01:03:34;97867.44;;;0.02;98.91
64078;BME280;51039;49.696;10.808;2022-11-20T01:06:05;97873.53;;;-0.07;97.85
64078;BME280;51039;49.696;10.808;2022-11-20T01:08:33;97871.03;;;-0.27;97.50
64078;BME280;51039;49.696;10.808;2022-11-20T01:11:00;97875.78;;;-0.22;98.48
64078;BME280;51039;49.696;10.808;2022-11-20T01:13:27;97865.47;;;-0.14;98.67
64078;BME280;51039;49.696;10.808;2022-11-20T01:16:03;97864.78;;;-0.16;98.55
64078;BME280;51039;49.696;10.808;2022-11-20T01:18:40;97872.25;;;-0.21;98.36
64078;BME280;51039;49.696;10.808;2022-11-20T01:21:08;97878.53;;;-0.24;98.75
64078;BME280;51039;49.696;10.808;2022-11-20T01:23:37;97881.97;;;-0.23;98.65
64078;BME280;51039;49.696;10.808;2022-11-20T01:26:06;97877.34;;;-0.29;98.62
64078;BME280;51039;49.696;10.808;2022-11-20T01:28:33;97878.19;;;-0.29;99.01
64078;BME280;51039;49.696;10.808;2022-11-20T01:30:59;97877.34;;;-0.29;99.14
64078;BME280;51039;49.696;10.808;2022-11-20T01:33:25;97870.66;;;-0.32;99.03
64078;BME280;51039;49.696;10.808;2022-11-20T01:35:52;97869.53;;;-0.29;99.08
64078;BME280;51039;49.696;10.808;2022-11-20T01:38:17;97865.44;;;-0.32;98.99
64078;BME280;51039;49.696;10.808;2022-11-20T01:40:44;97857.09;;;-0.35;99.06
64078;BME280;51039;49.696;10.808;2022-11-20T01:43:14;97867.97;;;-0.40;99.28
64078;BME280;51039;49.696;10.808;2022-11-20T01:51:13;97866.16;;;-0.40;99.60
64078;BME280;51039;49.696;10.808;2022-11-20T01:53:43;97865.06;;;-0.37;99.76
64078;BME280;51039;49.696;10.808;2022-11-20T01:56:09;97866.72;;;-0.36;99.74
64078;BME280;51039;49.696;10.808;2022-11-20T01:58:47;97859.03;;;-0.37;99.63
64078;BME280;51039;49.696;10.808;2022-11-20T02:01:16;97866.84;;;-0.37;99.78
64078;BME280;51039;49.696;10.808;2022-11-20T02:03:42;97864.03;;;-0.44;99.40
64078;BME280;51039;49.696;10.808;2022-11-20T02:08:54;97862.56;;;-0.29;99.76
64078;BME280;51039;49.696;10.808;2022-11-20T02:11:20;97859.72;;;-0.35;99.65
64078;BME280;51039;49.696;10.808;2022-11-20T02:13:46;97849.88;;;-0.42;99.69
64078;BME280;51039;49.696;10.808;2022-11-20T02:18:55;97864.53;;;-0.41;100.00
64078;BME280;51039;49.696;10.808;2022-11-20T02:24:22;97861.19;;;-0.33;100.00
64078;BME280;51039;49.696;10.808;2022-11-20T02:26:50;97856.56;;;-0.39;99.88
64078;BME280;51039;49.696;10.808;2022-11-20T02:29:37;97849.88;;;-0.42;100.00
64078;BME280;51039;49.696;10.808;2022-11-20T02:32:17;97847.00;;;-0.38;100.00
64078;BME280;51039;49.696;10.808;2022-11-20T02:34:43;97842.09;;;-0.42;100.00
64078;BME280;51039;49.696;10.808;2022-11-20T02:37:08;97852.50;;;-0.42;100.00
64078;BME280;51039;49.696;10.808;2022-11-20T02:39:34;97856.28;;;-0.36;100.00
64078;BME280;51039;49.696;10.808;2022-11-20T02:42:00;97862.69;;;-0.30;100.00
64078;BME280;51039;49.696;10.808;2022-11-20T02:44:27;97859.84;;;-0.37;100.00
64078;BME280;51039;49.696;10.808;2022-11-20T02:46:52;97858.09;;;-0.36;100.00
64078;BME280;51039;49.696;10.808;2022-11-20T02:49:17;97846.56;;;-0.34;100.00
64078;BME280;51039;49.696;10.808;2022-11-20T02:51:43;97842.16;;;-0.33;100.00
64078;BME280;51039;49.696;10.808;2022-11-20T02:54:08;97840.16;;;-0.40;100.00
64078;BME280;51039;49.696;10.808;2022-11-20T02:56:34;97843.16;;;-0.34;100.00
64078;BME280;51039;49.696;10.808;2022-11-20T02:58:59;97838.22;;;-0.37;100.00
64078;BME280;51039;49.696;10.808;2022-11-20T03:01:24;97835.91;;;-0.41;100.00
64078;BME280;51039;49.696;10.808;2022-11-20T03:03:50;97831.94;;;-0.45;100.00
64078;BME280;51039;49.696;10.808;2022-11-20T03:06:16;97832.22;;;-0.38;100.00
64078;BME280;51039;49.696;10.808;2022-11-20T03:08:42;97837.94;;;-0.34;100.00
64078;BME280;51039;49.696;10.808;2022-11-20T03:11:08;97831.47;;;-0.30;100.00
64078;BME280;51039;49.696;10.808;2022-11-20T03:13:34;97826.19;;;-0.38;100.00
64078;BME280;51039;49.696;10.808;2022-11-20T03:16:15;97824.81;;;-0.43;100.00
64078;BME280;51039;49.696;10.808;2022-11-20T03:18:42;97834.94;;;-0.40;100.00
64078;BME280;51039;49.696;10.808;2022-11-20T03:21:09;97823.41;;;-0.37;100.00
64078;BME280;51039;49.696;10.808;2022-11-20T03:23:42;97828.09;;;-0.41;100.00
64078;BME280;51039;49.696;10.808;2022-11-20T03:26:15;97835.63;;;-0.37;100.00
64078;BME280;51039;49.696;10.808;2022-11-20T03:28:46;97827.47;;;-0.25;100.00
64078;BME280;51039;49.696;10.808;2022-11-20T03:31:13;97831.25;;;-0.19;100.00
64078;BME280;51039;49.696;10.808;2022-11-20T03:33:40;97822.34;;;-0.16;100.00
64078;BME280;51039;49.696;10.808;2022-11-20T03:36:07;97815.25;;;-0.24;100.00
64078;BME280;51039;49.696;10.808;2022-11-20T03:38:35;97816.53;;;-0.28;100.00
64078;BME280;51039;49.696;10.808;2022-11-20T03:41:02;97821.88;;;-0.30;100.00
64078;BME280;51039;49.696;10.808;2022-11-20T03:43:33;97825.88;;;-0.35;100.00
64078;BME280;51039;49.696;10.808;2022-11-20T03:45:58;97820.81;;;-0.37;100.00
64078;BME280;51039;49.696;10.808;2022-11-20T03:48:24;97812.47;;;-0.41;100.00
64078;BME280;51039;49.696;10.808;2022-11-20T03:50:51;97816.34;;;-0.45;100.00
64078;BME280;51039;49.696;10.808;2022-11-20T03:53:17;97812.78;;;-0.44;100.00
64078;BME280;51039;49.696;10.808;2022-11-20T03:55:42;97813.84;;;-0.36;100.00
64078;BME280;51039;49.696;10.808;2022-11-20T03:58:08;97812.47;;;-0.41;100.00
64078;BME280;51039;49.696;10.808;2022-11-20T04:00:34;97811.53;;;-0.40;100.00
64078;BME280;51039;49.696;10.808;2022-11-20T04:03:02;97806.91;;;-0.46;100.00
64078;BME280;51039;49.696;10.808;2022-11-20T04:05:28;97817.47;;;-0.47;100.00
64078;BME280;51039;49.696;10.808;2022-11-20T04:07:53;97811.44;;;-0.48;100.00
64078;BME280;51039;49.696;10.808;2022-11-20T04:10:19;97808.72;;;-0.46;100.00
64078;BME280;51039;49.696;10.808;2022-11-20T04:12:44;97816.34;;;-0.45;100.00
64078;BME280;51039;49.696;10.808;2022-11-20T04:15:09;97816.88;;;-0.41;100.00
64078;BME280;51039;49.696;10.808;2022-11-20T04:17:35;97807.59;;;-0.44;100.00
64078;BME280;51039;49.696;10.808;2022-11-20T04:20:00;97806.78;;;-0.44;100.00
64078;BME280;51039;49.696;10.808;2022-11-20T04:22:26;97804.31;;;-0.46;100.00
64078;BME280;51039;49.696;10.808;2022-11-20T04:24:51;97804.31;;;-0.46;100.00
64078;BME280;51039;49.696;10.808;2022-11-20T04:27:16;97794.25;;;-0.41;100.00
64078;BME280;51039;49.696;10.808;2022-11-20T04:29:42;97796.72;;;-0.39;100.00
64078;BME280;51039;49.696;10.808;2022-11-20T04:32:07;97793.03;;;-0.36;100.00
64078;BME280;51039;49.696;10.808;2022-11-20T04:34:32;97799.84;;;-0.35;100.00
64078;BME280;51039;49.696;10.808;2022-11-20T04:36:58;97798.91;;;-0.34;100.00
64078;BME280;51039;49.696;10.808;2022-11-20T04:39:24;97787.59;;;-0.25;100.00
64078;BME280;51039;49.696;10.808;2022-11-20T04:41:49;97788.31;;;-0.33;100.00
64078;BME280;51039;49.696;10.808;2022-11-20T04:44:34;97792.72;;;-0.33;100.00
64078;BME280;51039;49.696;10.808;2022-11-20T04:47:00;97791.09;;;-0.34;100.00
64078;BME280;51039;49.696;10.808;2022-11-20T04:49:25;97781.72;;;-0.27;100.00
64078;BME280;51039;49.696;10.808;2022-11-20T04:51:52;97784.50;;;-0.29;100.00
64078;BME280;51039;49.696;10.808;2022-11-20T04:54:18;97788.56;;;-0.26;100.00
64078;BME280;51039;49.696;10.808;2022-11-20T04:56:46;97785.50;;;-0.22;100.00
64078;BME280;51039;49.696;10.808;2022-11-20T04:59:12;97786.09;;;-0.28;100.00
64078;BME280;51039;49.696;10.808;2022-11-20T05:01:38;97788.56;;;-0.26;100.00
64078;BME280;51039;49.696;10.808;2022-11-20T05:04:03;97787.91;;;-0.28;100.00
64078;BME280;51039;49.696;10.808;2022-11-20T05:06:28;97794.38;;;-0.32;100.00
64078;BME280;51039;49.696;10.808;2022-11-20T05:08:54;97797.78;;;-0.32;100.00
64078;BME280;51039;49.696;10.808;2022-11-20T05:11:20;97797.25;;;-0.35;100.00
64078;BME280;51039;49.696;10.808;2022-11-20T05:13:46;97795.19;;;-0.32;100.00
64078;BME280;51039;49.696;10.808;2022-11-20T05:16:12;97790.50;;;-0.28;100.00
64078;BME280;51039;49.696;10.808;2022-11-20T05:18:39;97787.09;;;-0.29;100.00
64078;BME280;51039;49.696;10.808;2022-11-20T05:21:05;97795.72;;;-0.28;100.00
64078;BME280;51039;49.696;10.808;2022-11-20T05:23:31;97790.19;;;-0.25;100.00
64078;BME280;51039;49.696;10.808;2022-11-20T05:25:57;97802.63;;;-0.19;100.00
64078;BME280;51039;49.696;10.808;2022-11-20T05:28:23;97794.38;;;-0.14;100.00
64078;BME280;51039;49.696;10.808;2022-11-20T05:30:49;97786.03;;;-0.18;100.00
64078;BME280;51039;49.696;10.808;2022-11-20T05:33:14;97787.22;;;-0.30;100.00
64078;BME280;51039;49.696;10.808;2022-11-20T05:35:40;97775.16;;;-0.31;100.00
64078;BME280;51039;49.696;10.808;2022-11-20T05:38:06;97775.50;;;-0.34;100.00
64078;BME280;51039;49.696;10.808;2022-11-20T05:40:31;97774.28;;;-0.40;100.00
64078;BME280;51039;49.696;10.808;2022-11-20T05:42:57;97771.22;;;-0.35;100.00
64078;BME280;51039;49.696;10.808;2022-11-20T05:45:22;97764.25;;;-0.35;100.00
64078;BME280;51039;49.696;10.808;2022-11-20T05:47:47;97778.75;;;-0.32;100.00
64078;BME280;51039;49.696;10.808;2022-11-20T05:50:13;97777.09;;;-0.33;100.00
64078;BME280;51039;49.696;10.808;2022-11-20T05:52:39;97775.16;;;-0.31;100.00
64078;BME280;51039;49.696;10.808;2022-11-20T05:55:05;97771.91;;;-0.33;100.00
64078;BME280;51039;49.696;10.808;2022-11-20T05:57:31;97770.63;;;-0.29;100.00
64078;BME280;51039;49.696;10.808;2022-11-20T05:59:56;97772.16;;;-0.27;100.00
64078;BME280;51039;49.696;10.808;2022-11-20T06:02:22;97761.22;;;-0.30;100.00
64078;BME280;51039;49.696;10.808;2022-11-20T06:04:47;97765.09;;;-0.34;100.00
64078;BME280;51039;49.696;10.808;2022-11-20T06:07:12;97770.84;;;-0.41;100.00
64078;BME280;51039;49.696;10.808;2022-11-20T06:09:38;97767.22;;;-0.30;100.00
64078;BME280;51039;49.696;10.808;2022-11-20T06:12:03;97771.16;;;-0.26;100.00
64078;BME280;51039;49.696;10.808;2022-11-20T06:14:28;97771.22;;;-0.17;100.00
64078;BME280;51039;49.696;10.808;2022-11-20T06:16:54;97767.97;;;-0.20;100.00
64078;BME280;51039;49.696;10.808;2022-11-20T06:19:19;97767.88;;;-0.28;100.00
64078;BME280;51039;49.696;10.808;2022-11-20T06:21:44;97774.28;;;-0.22;100.00
64078;BME280;51039;49.696;10.808;2022-11-20T06:24:10;97775.63;;;-0.18;100.00
64078;BME280;51039;49.696;10.808;2022-11-20T06:26:35;97770.94;;;-0.14;100.00
64078;BME280;51039;49.696;10.808;2022-11-20T06:29:01;97762.31;;;-0.15;100.00
64078;BME280;51039;49.696;10.808;2022-11-20T06:31:27;97767.00;;;-0.18;100.00
64078;BME280;51039;49.696;10.808;2022-11-20T06:33:53;97765.75;;;-0.14;100.00
64078;BME280;51039;49.696;10.808;2022-11-20T06:36:19;97766.41;;;-0.12;100.00
64078;BME280;51039;49.696;10.808;2022-11-20T06:38:46;97773.03;;;0.00;100.00
64078;BME280;51039;49.696;10.808;2022-11-20T06:41:14;97771.59;;;0.06;100.00
64078;BME280;51039;49.696;10.808;2022-11-20T06:43:41;97773.97;;;-0.01;100.00
64078;BME280;51039;49.696;10.808;2022-11-20T06:46:06;97778.91;;;0.02;100.00
64078;BME280;51039;49.696;10.808;2022-11-20T06:48:33;97777.63;;;0.06;100.00
64078;BME280;51039;49.696;10.808;2022-11-20T06:50:58;97776.44;;;0.01;100.00
64078;BME280;51039;49.696;10.808;2022-11-20T06:53:24;97786.06;;;0.00;100.00
64078;BME280;51039;49.696;10.808;2022-11-20T06:55:50;97777.06;;;-0.06;100.00
64078;BME280;51039;49.696;10.808;2022-11-20T06:58:16;97779.19;;;-0.01;100.00
64078;BME280;51039;49.696;10.808;2022-11-20T07:00:42;97777.13;;;0.03;100.00
64078;BME280;51039;49.696;10.808;2022-11-20T07:03:08;97776.31;;;0.02;100.00
64078;BME280;51039;49.696;10.808;2022-11-20T07:05:34;97778.06;;;0.02;100.00
64078;BME280;51039;49.696;10.808;2022-11-20T07:08:00;97793.69;;;0.02;100.00
64078;BME280;51039;49.696;10.808;2022-11-20T07:10:26;97789.81;;;0.06;100.00
64078;BME280;51039;49.696;10.808;2022-11-20T07:12:52;97797.47;;;0.07;100.00
64078;BME280;51039;49.696;10.808;2022-11-20T07:15:18;97794.22;;;0.05;100.00
64078;BME280;51039;49.696;10.808;2022-11-20T07:17:45;97785.34;;;-0.02;100.00
64078;BME280;51039;49.696;10.808;2022-11-20T07:20:10;97790.41;;;-0.01;100.00
64078;BME280;51039;49.696;10.808;2022-11-20T07:22:36;97791.84;;;-0.06;100.00
64078;BME280;51039;49.696;10.808;2022-11-20T07:25:03;97794.97;;;-0.03;100.00
64078;BME280;51039;49.696;10.808;2022-11-20T07:27:29;97793.69;;;0.02;100.00
64078;BME280;51039;49.696;10.808;2022-11-20T07:29:54;97792.41;;;0.06;100.00
64078;BME280;51039;49.696;10.808;2022-11-20T07:32:20;97793.47;;;0.13;100.00
64078;BME280;51039;49.696;10.808;2022-11-20T07:34:46;97787.66;;;0.19;100.00
64078;BME280;51039;49.696;10.808;2022-11-20T07:37:11;97800.38;;;0.22;100.00
64078;BME280;51039;49.696;10.808;2022-11-20T07:39:36;97802.69;;;0.25;100.00
64078;BME280;51039;49.696;10.808;2022-11-20T07:42:02;97797.81;;;0.30;100.00
64078;BME280;51039;49.696;10.808;2022-11-20T07:44:27;97791.34;;;0.34;100.00
64078;BME280;51039;49.696;10.808;2022-11-20T07:46:52;97790.75;;;0.41;100.00
64078;BME280;51039;49.696;10.808;2022-11-20T07:49:18;97786.66;;;0.38;100.00
64078;BME280;51039;49.696;10.808;2022-11-20T07:51:43;97790.91;;;0.39;100.00
64078;BME280;51039;49.696;10.808;2022-11-20T07:54:08;97785.84;;;0.37;100.00
64078;BME280;51039;49.696;10.808;2022-11-20T07:56:34;97788.81;;;0.43;100.00
64078;BME280;51039;49.696;10.808;2022-11-20T07:58:59;97787.22;;;0.50;100.00
64078;BME280;51039;49.696;10.808;2022-11-20T08:01:24;97793.59;;;0.55;100.00
64078;BME280;51039;49.696;10.808;2022-11-20T08:03:50;97789.53;;;0.53;100.00
64078;BME280;51039;49.696;10.808;2022-11-20T08:06:15;97778.19;;;0.62;100.00
64078;BME280;51039;49.696;10.808;2022-11-20T08:08:40;97786.03;;;0.70;100.00
64078;BME280;51039;49.696;10.808;2022-11-20T08:11:05;97787.69;;;0.71;100.00
64078;BME280;51039;49.696;10.808;2022-11-20T08:13:50;97780.53;;;0.73;100.00
64078;BME280;51039;49.696;10.808;2022-11-20T08:16:33;97781.84;;;0.77;100.00
64078;BME280;51039;49.696;10.808;2022-11-20T08:18:59;97789.81;;;0.76;100.00
64078;BME280;51039;49.696;10.808;2022-11-20T08:21:24;97789.00;;;0.75;100.00
64078;BME280;51039;49.696;10.808;2022-11-20T08:23:49;97786.75;;;0.81;100.00
64078;BME280;51039;49.696;10.808;2022-11-20T08:26:15;97786.59;;;0.82;100.00
64078;BME280;51039;49.696;10.808;2022-11-20T08:28:40;97781.88;;;0.86;100.00
64078;BME280;51039;49.696;10.808;2022-11-20T08:31:05;97789.53;;;0.79;100.00
64078;BME280;51039;49.696;10.808;2022-11-20T08:33:31;97773.88;;;0.79;100.00
64078;BME280;51039;49.696;10.808;2022-11-20T08:35:58;97789.72;;;0.86;100.00
64078;BME280;51039;49.696;10.808;2022-11-20T08:38:27;97784.06;;;1.33;100.00
64078;BME280;51039;49.696;10.808;2022-11-20T08:40:55;97789.66;;;1.54;100.00
64078;BME280;51039;49.696;10.808;2022-11-20T08:43:40;97787.38;;;1.60;100.00
64078;BME280;51039;49.696;10.808;2022-11-20T08:46:05;97782.06;;;2.02;100.00
64078;BME280;51039;49.696;10.808;2022-11-20T08:48:30;97785.78;;;1.75;100.00
64078;BME280;51039;49.696;10.808;2022-11-20T08:50:57;97786.41;;;1.77;100.00
64078;BME280;51039;49.696;10.808;2022-11-20T08:53:23;97779.28;;;1.87;100.00
64078;BME280;51039;49.696;10.808;2022-11-20T08:55:48;97778.88;;;1.57;98.90
64078;BME280;51039;49.696;10.808;2022-11-20T08:58:14;97781.31;;;1.43;99.79
64078;BME280;51039;49.696;10.808;2022-11-20T09:00:39;97782.56;;;1.30;99.95
64078;BME280;51039;49.696;10.808;2022-11-20T09:03:04;97794.78;;;1.22;100.00
64078;BME280;51039;49.696;10.808;2022-11-20T09:05:30;97798.31;;;1.12;100.00
64078;BME280;51039;49.696;10.808;2022-11-20T09:07:56;97795.03;;;1.02;100.00
64078;BME280;51039;49.696;10.808;2022-11-20T09:10:21;97793.06;;;1.04;100.00
64078;BME280;51039;49.696;10.808;2022-11-20T09:12:50;97771.16;;;0.89;100.00
64078;BME280;51039;49.696;10.808;2022-11-20T09:15:16;97778.03;;;0.98;100.00
64078;BME280;51039;49.696;10.808;2022-11-20T09:17:42;97779.38;;;1.02;100.00
64078;BME280;51039;49.696;10.808;2022-11-20T09:20:07;97781.81;;;1.04;100.00
64078;BME280;51039;49.696;10.808;2022-11-20T09:22:33;97779.03;;;1.05;100.00
64078;BME280;51039;49.696;10.808;2022-11-20T09:24:58;97777.84;;;0.91;100.00
64078;BME280;51039;49.696;10.808;2022-11-20T09:27:23;97785.41;;;1.03;100.00
64078;BME280;51039;49.696;10.808;2022-11-20T09:29:49;97794.03;;;1.03;100.00
64078;BME280;51039;49.696;10.808;2022-11-20T09:32:14;97800.53;;;0.99;100.00
64078;BME280;51039;49.696;10.808;2022-11-20T09:34:39;97788.69;;;0.78;100.00
64078;BME280;51039;49.696;10.808;2022-11-20T09:37:05;97791.50;;;0.85;100.00
64078;BME280;51039;49.696;10.808;2022-11-20T09:39:30;97790.75;;;0.93;100.00
64078;BME280;51039;49.696;10.808;2022-11-20T09:47:08;97790.25;;;1.40;100.00
64078;BME280;51039;49.696;10.808;2022-11-20T09:55:16;97792.88;;;1.40;100.00
64078;BME280;51039;49.696;10.808;2022-11-20T09:57:43;97786.84;;;1.40;100.00
64078;BME280;51039;49.696;10.808;2022-11-20T10:00:12;97789.59;;;1.38;100.00
64078;BME280;51039;49.696;10.808;2022-11-20T10:02:42;97780.31;;;1.44;100.00
64078;BME280;51039;49.696;10.808;2022-11-20T10:19:22;97772.69;;;1.50;100.00
64078;BME280;51039;49.696;10.808;2022-11-20T10:24:56;97771.44;;;1.20;100.00
64078;BME280;51039;49.696;10.808;2022-11-20T10:30:10;97769.22;;;1.42;100.00
64078;BME280;51039;49.696;10.808;2022-11-20T10:32:39;97762.91;;;1.52;100.00
64078;BME280;51039;49.696;10.808;2022-11-20T10:35:18;97761.59;;;1.56;100.00
64078;BME280;51039;49.696;10.808;2022-11-20T10:38:34;97767.63;;;1.57;100.00
64078;BME280;51039;49.696;10.808;2022-11-20T10:40:45;97761.25;;;1.51;100.00
64078;BME280;51039;49.696;10.808;2022-11-20T10:43:29;97763.56;;;1.54;100.00
64078;BME280;51039;49.696;10.808;2022-11-20T10:48:37;97771.69;;;1.51;100.00
64078;BME280;51039;49.696;10.808;2022-11-20T10:54:17;97783.50;;;1.64;100.00
64078;BME280;51039;49.696;10.808;2022-11-20T10:56:50;97774.72;;;1.81;100.00
64078;BME280;51039;49.696;10.808;2022-11-20T10:59:31;97784.97;;;1.74;100.00
64078;BME280;51039;49.696;10.808;2022-11-20T11:02:20;97789.22;;;1.75;100.00
64078;BME280;51039;49.696;10.808;2022-11-20T11:04:51;97788.06;;;1.70;100.00
64078;BME280;51039;49.696;10.808;2022-11-20T11:07:20;97777.31;;;1.81;100.00
64078;BME280;51039;49.696;10.808;2022-11-20T11:09:55;97774.72;;;1.89;100.00
64078;BME280;51039;49.696;10.808;2022-11-20T11:12:22;97764.91;;;2.08;100.00
64078;BME280;51039;49.696;10.808;2022-11-20T11:14:53;97760.81;;;2.54;100.00
64078;BME280;51039;49.696;10.808;2022-11-20T11:20:05;97752.50;;;2.99;96.93
64078;BME280;51039;49.696;10.808;2022-11-20T11:22:45;97737.25;;;3.10;96.43
64078;BME280;51039;49.696;10.808;2022-11-20T11:25:32;97731.97;;;2.71;97.03
64078;BME280;51039;49.696;10.808;2022-11-20T11:28:20;97729.81;;;2.91;97.51
64078;BME280;51039;49.696;10.808;2022-11-20T11:30:46;97729.03;;;3.13;95.70
64078;BME280;51039;49.696;10.808;2022-11-20T11:33:21;97716.34;;;3.33;95.36
64078;BME280;51039;49.696;10.808;2022-11-20T11:36:01;97723.03;;;3.36;95.61
64078;BME280;51039;49.696;10.808;2022-11-20T11:38:30;97725.19;;;3.32;95.32
64078;BME280;51039;49.696;10.808;2022-11-20T11:40:57;97724.66;;;3.14;95.84
64078;BME280;51039;49.696;10.808;2022-11-20T11:43:25;97728.22;;;3.13;97.06
64078;BME280;51039;49.696;10.808;2022-11-20T11:48:58;97717.59;;;2.75;98.74
64078;BME280;51039;49.696;10.808;2022-11-20T11:51:34;97722.81;;;2.83;98.77
64078;BME280;51039;49.696;10.808;2022-11-20T11:54:14;97716.16;;;2.64;98.66
64078;BME280;51039;49.696;10.808;2022-11-20T11:56:45;97720.19;;;2.75;99.32
64078;BME280;51039;49.696;10.808;2022-11-20T11:59:12;97722.81;;;2.75;99.41
64078;BME280;51039;49.696;10.808;2022-11-20T12:01:49;97711.88;;;2.80;99.42
64078;BME280;51039;49.696;10.808;2022-11-20T12:06:51;97710.63;;;2.59;99.37
64078;BME280;51039;49.696;10.808;2022-11-20T12:09:24;97715.50;;;2.70;99.60
64078;BME280;51039;49.696;10.808;2022-11-20T12:12:03;97706.69;;;2.63;98.97
64078;BME280;51039;49.696;10.808;2022-11-20T12:14:38;97717.78;;;2.73;99.42
64078;BME280;51039;49.696;10.808;2022-11-20T12:17:11;97722.69;;;2.68;98.78
64078;BME280;51039;49.696;10.808;2022-11-20T12:19:38;97726.31;;;2.51;99.91
64078;BME280;51039;49.696;10.808;2022-11-20T12:22:17;97726.47;;;2.58;100.00
64078;BME280;51039;49.696;10.808;2022-11-20T12:30:33;97718.94;;;3.10;100.00
64078;BME280;51039;49.696;10.808;2022-11-20T12:41:16;97714.78;;;3.24;98.11
64078;BME280;51039;49.696;10.808;2022-11-20T12:55:21;97707.97;;;2.67;100.00
64078;BME280;51039;49.696;10.808;2022-11-20T12:57:51;97712.19;;;2.77;100.00
64078;BME280;51039;49.696;10.808;2022-11-20T13:00:22;97705.50;;;2.74;100.00
64078;BME280;51039;49.696;10.808;2022-11-20T13:08:39;97701.75;;;2.68;100.00
64078;BME280;51039;49.696;10.808;2022-11-20T13:11:09;97705.34;;;2.75;100.00
64078;BME280;51039;49.696;10.808;2022-11-20T13:16:46;97698.50;;;2.66;100.00
64078;BME280;51039;49.696;10.808;2022-11-20T13:19:15;97699.66;;;2.64;100.00
64078;BME280;51039;49.696;10.808;2022-11-20T13:21:43;97692.59;;;2.72;100.00
64078;BME280;51039;49.696;10.808;2022-11-20T13:26:48;97697.22;;;2.54;100.00
64078;BME280;51039;49.696;10.808;2022-11-20T13:29:34;97694.97;;;2.51;100.00
64078;BME280;51039;49.696;10.808;2022-11-20T13:32:14;97691.06;;;2.47;100.00
64078;BME280;51039;49.696;10.808;2022-11-20T13:34:52;97698.25;;;2.45;100.00
64078;BME280;51039;49.696;10.808;2022-11-20T13:40:11;97706.22;;;2.51;100.00
64078;BME280;51039;49.696;10.808;2022-11-20T13:42:40;97709.47;;;2.53;100.00
64078;BME280;51039;49.696;10.808;2022-11-20T13:45:23;97711.41;;;2.60;100.00
64078;BME280;51039;49.696;10.808;2022-11-20T13:47:51;97712.75;;;2.55;100.00
64078;BME280;51039;49.696;10.808;2022-11-20T13:50:18;97704.91;;;2.55;100.00
64078;BME280;51039;49.696;10.808;2022-11-20T13:52:49;97708.66;;;2.53;100.00
64078;BME280;51039;49.696;10.808;2022-11-20T13:55:40;97717.03;;;2.48;100.00
64078;BME280;51039;49.696;10.808;2022-11-20T14:01:22;97701.66;;;2.45;100.00
64078;BME280;51039;49.696;10.808;2022-11-20T14:03:49;97693.50;;;2.48;100.00
64078;BME280;51039;49.696;10.808;2022-11-20T14:06:27;97698.22;;;2.53;100.00
64078;BME280;51039;49.696;10.808;2022-11-20T14:08:56;97708.00;;;2.59;100.00
64078;BME280;51039;49.696;10.808;2022-11-20T14:11:25;97696.91;;;2.57;100.00
64078;BME280;51039;49.696;10.808;2022-11-20T14:16:50;97699.03;;;2.53;100.00
64078;BME280;51039;49.696;10.808;2022-11-20T14:19:23;97699.53;;;2.49;100.00
64078;BME280;51039;49.696;10.808;2022-11-20T14:22:47;97693.97;;;2.52;100.00
64078;BME280;51039;49.696;10.808;2022-11-20T14:24:51;97699.66;;;2.64;100.00
64078;BME280;51039;49.696;10.808;2022-11-20T14:27:44;97691.00;;;2.63;100.00
64078;BME280;51039;49.696;10.808;2022-11-20T14:30:16;97690.50;;;2.68;100.00
64078;BME280;51039;49.696;10.808;2022-11-20T14:32:46;97689.50;;;2.69;100.00
64078;BME280;51039;49.696;10.808;2022-11-20T14:35:14;97687.03;;;2.67;100.00
64078;BME280;51039;49.696;10.808;2022-11-20T14:37:49;97681.22;;;2.57;100.00
64078;BME280;51039;49.696;10.808;2022-11-20T14:40:31;97673.38;;;2.57;100.00